Hlavní strana
METAR-TAF:

METAR-TAF

Letiště :

General Wayne Downing Peoria International Airport

Peoria, Illinois, Spojené státy americké

zeměpisná šířka: 40-40-03N, zeměpisná délka: 089-41-02W, výška: 201 m

Aktuální stav počasí

Zpráva byla vytvořena před 23 minutami, v 09:54 UTC
Severozápadní vítr 3 kt
Teplota -4°C
Vlhkost vzduchu 100%
Tlak 1014 hPa
Viditelnost: 2.8 km
Zataženo ve výšce 200 ft
kouřmo

METAR: KPIA 270954Z 31003KT 1 3/4SM BR OVC002 M04/M04 A2995 RMK AO2 SLP149 I1000 T10391039 $

Čas: 04:17 (10:17 UTC)

Předpověď počasí

Zpráva byla vytvořena před 4 hodinami a 55 minutami, v 05:22 UTC
Předpověď platná od 27 v 06 UTC do 28 v 06 UTC
Západoseverozápadní vítr 4 kt
Viditelnost: 4.8 km
Zataženo ve výšce 400 ft
kouřmo
Od 27 v 0800 UTC
Severozápadní vítr 4 kt
Viditelnost: 2.4 km
Zataženo ve výšce 400 ft
kouřmo
Od 27 v 1700 UTC
Severozápadní vítr 5 kt
Viditelnost: 10 km
Zataženo ve výšce 700 ft

TAF: KPIA 270522Z 2706/2806 30004KT 3SM BR OVC004 FM270800 31004KT 1 1/2SM BR OVC004 FM271700 31005KT P6SM OVC007

Stav a předpovědi počasí z více než 4 000 letišť (zprávy METAR a TAF).

Červené a žluté tečky na mapě představují dostupné meteorologické stanice.

Když kurzor umístíte na tečku, zobrazí se název stanice.

Pak kliknutím zobrazíte stav a předpověď počasí.

Chcete-li změnit mapu, kliknutím na zelené tlačítko se znaménkem +mapu přiblížíte, kliknutím na zelené tlačítko se znaménkem – mapu oddálíte a kliknutím na zelené šipky přejdete na sousední mapy.


METAR-TAF: